Time;durP1;ratioP1;P1;durP2;ratioP2;P2;SDS_P1;SDS_P2;PMS_P1;PMS_P2;Temp;Humidity;BMP_temperature;BMP_pressure;BME280_temperature;BME280_humidity;BME280_pressure;Samples;Min_cycle;Max_cycle;Signal;HPM_P1;HPM_P2
2022/11/05 00:10:22;;;;;;;8.27;3.50;;;;;;;;;;4988774;28;20042;-92
2022/11/05 00:18:24;;;;;;;4.40;2.42;;;;;;;;;;5007196;28;20045;-93
2022/11/05 00:26:56;;;;;;;7.88;3.10;;;;;;;;;;5006713;28;20053;-92
2022/11/05 00:29:30;;;;;;;9.02;3.38;;;;;;;;;;4972226;28;20057;-92
2022/11/05 00:32:02;;;;;;;11.95;3.00;;;;;;;;;;4987140;28;20630;-93
2022/11/05 00:34:30;;;;;;;8.82;2.88;;;;;;;;;;4967584;28;20064;-92
2022/11/05 00:37:02;;;;;;;6.18;2.67;;;;;;;;;;4988692;28;20045;-92
2022/11/05 00:39:30;;;;;;;7.10;2.75;;;;;;;;;;4988231;28;20397;-91
2022/11/05 00:45:02;;;;;;;8.25;2.95;;;;;;;;;;5005881;28;20052;-92
2022/11/05 00:50:45;;;;;;;6.53;2.70;;;;;;;;;;5005219;28;20515;-93
2022/11/05 00:53:12;;;;;;;5.97;2.80;;;;;;;;;;5006844;28;20209;-91
2022/11/05 00:55:43;;;;;;;12.25;2.80;;;;;;;;;;5007457;28;20042;-92
2022/11/05 00:58:18;;;;;;;9.77;2.75;;;;;;;;;;4997353;28;20470;-92
2022/11/05 01:00:52;;;;;;;6.90;2.80;;;;;;;;;;5004547;28;20040;-93
2022/11/05 01:03:50;;;;;;;7.88;2.97;;;;;;;;;;5003853;28;20041;-91
2022/11/05 01:06:18;;;;;;;5.50;2.45;;;;;;;;;;5005560;28;20569;-92
2022/11/05 01:08:46;;;;;;;7.22;2.33;;;;;;;;;;4973844;28;20128;-93
2022/11/05 01:11:32;;;;;;;5.95;2.67;;;;;;;;;;5003196;28;20038;-91
2022/11/05 01:14:13;;;;;;;7.50;2.58;;;;;;;;;;4966036;28;20525;-92
2022/11/05 01:16:41;;;;;;;4.38;2.30;;;;;;;;;;5002506;28;20133;-92
2022/11/05 01:19:14;;;;;;;6.93;2.80;;;;;;;;;;4968731;28;20045;-92
2022/11/05 01:21:42;;;;;;;6.38;2.30;;;;;;;;;;4982411;28;20365;-93
2022/11/05 01:24:14;;;;;;;8.82;2.97;;;;;;;;;;4990179;28;20030;-92
2022/11/05 01:26:42;;;;;;;8.40;2.42;;;;;;;;;;5005915;28;20042;-92
2022/11/05 01:29:10;;;;;;;7.30;2.42;;;;;;;;;;5007299;28;20397;-93
2022/11/05 01:31:38;;;;;;;5.43;2.50;;;;;;;;;;5000149;28;20140;-92
2022/11/05 01:34:06;;;;;;;6.82;2.60;;;;;;;;;;4990132;28;20042;-91
2022/11/05 01:36:58;;;;;;;6.15;2.63;;;;;;;;;;5003699;28;20188;-92
2022/11/05 01:39:26;;;;;;;7.28;2.20;;;;;;;;;;5003034;28;20044;-92
2022/11/05 01:41:54;;;;;;;5.85;2.35;;;;;;;;;;5005555;28;20038;-93
2022/11/05 01:44:52;;;;;;;8.77;2.33;;;;;;;;;;4998127;28;20030;-93
2022/11/05 01:47:26;;;;;;;9.13;2.95;;;;;;;;;;5006779;28;20042;-91
2022/11/05 01:49:58;;;;;;;5.50;2.53;;;;;;;;;;4983328;28;20045;-93
2022/11/05 01:52:30;;;;;;;7.20;2.42;;;;;;;;;;4997554;28;20037;-93
2022/11/05 01:55:03;;;;;;;8.00;2.60;;;;;;;;;;5006008;28;20120;-93
2022/11/05 01:57:31;;;;;;;5.60;2.35;;;;;;;;;;4982261;28;20050;-92
2022/11/05 02:00:25;;;;;;;10.18;2.65;;;;;;;;;;5003329;28;20034;-92
2022/11/05 02:03:17;;;;;;;8.27;2.30;;;;;;;;;;5003890;28;20061;-93
2022/11/05 02:05:47;;;;;;;5.32;2.03;;;;;;;;;;4984425;28;20041;-93
2022/11/05 02:08:48;;;;;;;4.07;2.00;;;;;;;;;;4990774;28;20093;-92
2022/11/05 02:11:19;;;;;;;5.95;2.60;;;;;;;;;;5008637;28;20041;-92
2022/11/05 02:13:50;;;;;;;7.70;2.47;;;;;;;;;;5009357;28;20033;-92
2022/11/05 02:16:37;;;;;;;7.18;2.58;;;;;;;;;;4985157;28;20621;-93
2022/11/05 02:19:58;;;;;;;6.70;2.22;;;;;;;;;;5010307;28;20045;-92
2022/11/05 02:22:39;;;;;;;6.88;2.15;;;;;;;;;;4999184;28;20057;-92
2022/11/05 02:25:58;;;;;;;8.45;2.42;;;;;;;;;;5007904;28;20048;-92
2022/11/05 02:31:55;;;;;;;7.70;2.35;;;;;;;;;;4992076;28;20060;-93
2022/11/05 02:34:50;;;;;;;13.98;2.47;;;;;;;;;;5004690;28;20137;-93
2022/11/05 02:37:57;;;;;;;8.73;2.30;;;;;;;;;;5008762;28;20105;-92
2022/11/05 02:40:43;;;;;;;7.03;2.13;;;;;;;;;;4975098;28;20053;-92
2022/11/05 02:43:28;;;;;;;8.15;2.88;;;;;;;;;;5007676;28;20172;-92
2022/11/05 02:46:08;;;;;;;5.93;2.58;;;;;;;;;;4985002;28;20508;-92
2022/11/05 02:49:07;;;;;;;7.28;1.92;;;;;;;;;;5008508;28;20380;-93
2022/11/05 02:51:49;;;;;;;7.07;2.53;;;;;;;;;;5008471;28;20117;-93
2022/11/05 02:54:43;;;;;;;6.65;2.50;;;;;;;;;;5008803;28;20136;-92
2022/11/05 02:57:10;;;;;;;10.32;2.15;;;;;;;;;;4999961;28;20456;-94
2022/11/05 02:59:38;;;;;;;8.18;2.40;;;;;;;;;;4991750;28;20034;-93
2022/11/05 03:02:06;;;;;;;6.20;2.00;;;;;;;;;;5009798;28;20053;-92
2022/11/05 03:04:34;;;;;;;10.25;2.47;;;;;;;;;;4991862;28;20484;-93
2022/11/05 03:07:18;;;;;;;4.32;1.98;;;;;;;;;;5008809;28;20173;-91
2022/11/05 03:10:14;;;;;;;5.68;1.98;;;;;;;;;;4990265;28;20065;-92
2022/11/05 03:13:17;;;;;;;3.75;1.77;;;;;;;;;;5007339;28;20042;-91
2022/11/05 03:15:59;;;;;;;7.55;2.35;;;;;;;;;;5006628;28;20121;-92
2022/11/05 03:18:46;;;;;;;7.68;2.38;;;;;;;;;;4985746;28;20552;-92
2022/11/05 03:21:36;;;;;;;4.75;2.08;;;;;;;;;;5005058;28;20034;-93
2022/11/05 03:24:09;;;;;;;7.93;2.35;;;;;;;;;;4989752;28;20080;-92
2022/11/05 03:27:19;;;;;;;7.00;2.38;;;;;;;;;;4991542;28;20415;-93
2022/11/05 03:30:12;;;;;;;6.55;2.40;;;;;;;;;;5004530;28;20030;-91
2022/11/05 03:32:52;;;;;;;9.73;2.42;;;;;;;;;;5006323;28;20084;-92
2022/11/05 03:35:52;;;;;;;6.22;2.30;;;;;;;;;;4983333;28;20056;-92
2022/11/05 03:38:27;;;;;;;6.40;2.40;;;;;;;;;;4988776;28;20399;-92
2022/11/05 03:40:57;;;;;;;5.70;2.28;;;;;;;;;;5008063;28;20519;-92
2022/11/05 03:43:29;;;;;;;6.00;2.33;;;;;;;;;;5005952;28;20061;-92
2022/11/05 03:46:15;;;;;;;5.80;2.38;;;;;;;;;;4990847;28;20045;-91
2022/11/05 03:48:51;;;;;;;10.05;2.10;;;;;;;;;;5007333;28;20046;-93
2022/11/05 03:51:37;;;;;;;6.20;2.65;;;;;;;;;;4989911;28;20095;-92
2022/11/05 03:54:05;;;;;;;10.13;2.35;;;;;;;;;;4989143;28;20046;-93
2022/11/05 03:57:13;;;;;;;6.38;2.28;;;;;;;;;;5008157;28;20116;-93
2022/11/05 03:59:43;;;;;;;11.35;2.63;;;;;;;;;;4989191;28;20452;-91
2022/11/05 04:02:12;;;;;;;6.20;1.88;;;;;;;;;;4989174;28;20034;-91
2022/11/05 04:05:04;;;;;;;13.82;2.60;;;;;;;;;;4993487;28;20416;-92
2022/11/05 04:13:23;;;;;;;10.02;2.30;;;;;;;;;;4998896;28;20046;-91
2022/11/05 04:18:41;;;;;;;9.00;2.47;;;;;;;;;;4988914;28;20038;-92
2022/11/05 04:24:09;;;;;;;8.63;2.47;;;;;;;;;;4989510;28;20037;-91
2022/11/05 04:26:46;;;;;;;9.93;2.60;;;;;;;;;;4990214;28;20064;-91
2022/11/05 04:32:00;;;;;;;5.00;2.10;;;;;;;;;;4998629;28;20054;-92
2022/11/05 04:34:28;;;;;;;8.48;2.22;;;;;;;;;;5008090;28;20068;-92
2022/11/05 04:36:56;;;;;;;5.53;2.08;;;;;;;;;;5004802;28;20128;-92
2022/11/05 04:39:24;;;;;;;4.68;1.83;;;;;;;;;;4996773;28;20045;-92
2022/11/05 04:41:52;;;;;;;7.05;2.38;;;;;;;;;;5007109;28;20049;-92
2022/11/05 04:44:20;;;;;;;4.95;2.05;;;;;;;;;;4996444;28;20088;-92
2022/11/05 04:46:48;;;;;;;8.38;2.30;;;;;;;;;;5005538;28;20042;-92
2022/11/05 04:49:16;;;;;;;6.40;2.22;;;;;;;;;;4988197;28;20129;-92
2022/11/05 04:52:09;;;;;;;6.90;2.42;;;;;;;;;;4971669;28;20049;-90
2022/11/05 04:54:37;;;;;;;5.53;2.38;;;;;;;;;;4988433;28;20030;-91
2022/11/05 04:57:04;;;;;;;7.75;3.03;;;;;;;;;;4989101;28;20038;-91
2022/11/05 04:59:32;;;;;;;7.38;2.25;;;;;;;;;;5005865;28;20480;-93
2022/11/05 05:02:00;;;;;;;8.48;2.30;;;;;;;;;;5002268;28;20092;-92
2022/11/05 05:04:28;;;;;;;5.85;2.55;;;;;;;;;;5007237;28;20066;-90
2022/11/05 05:06:56;;;;;;;9.82;2.42;;;;;;;;;;5006799;28;20460;-93
2022/11/05 05:09:24;;;;;;;8.77;2.60;;;;;;;;;;5001181;28;20068;-90
2022/11/05 05:11:52;;;;;;;7.30;2.75;;;;;;;;;;4987224;28;20073;-92
2022/11/05 05:14:48;;;;;;;8.07;2.40;;;;;;;;;;5008173;28;20038;-92
2022/11/05 05:17:16;;;;;;;7.88;2.20;;;;;;;;;;4988614;28;20052;-92
2022/11/05 05:22:36;;;;;;;8.20;2.35;;;;;;;;;;5005503;28;20042;-92
2022/11/05 05:25:04;;;;;;;6.97;2.50;;;;;;;;;;5006877;28;20124;-92
2022/11/05 05:27:32;;;;;;;8.98;2.70;;;;;;;;;;4984723;28;20104;-92
2022/11/05 05:30:00;;;;;;;7.70;2.83;;;;;;;;;;5006425;28;20038;-93
2022/11/05 05:32:28;;;;;;;7.35;2.47;;;;;;;;;;4989426;28;20038;-92
2022/11/05 05:35:20;;;;;;;7.43;2.92;;;;;;;;;;5007965;28;20037;-93
2022/11/05 05:37:53;;;;;;;7.80;2.65;;;;;;;;;;4999721;28;20045;-92
2022/11/05 05:40:20;;;;;;;7.45;2.53;;;;;;;;;;5005159;28;20053;-91
2022/11/05 05:42:54;;;;;;;4.20;2.03;;;;;;;;;;5005751;28;20056;-91
2022/11/05 05:45:26;;;;;;;5.65;2.55;;;;;;;;;;5009281;28;20045;-92
2022/11/05 05:48:25;;;;;;;9.23;2.70;;;;;;;;;;4991975;28;20092;-92
2022/11/05 05:50:52;;;;;;;5.72;2.70;;;;;;;;;;4975770;28;20400;-92
2022/11/05 05:53:20;;;;;;;6.97;2.42;;;;;;;;;;4986435;28;20064;-91
2022/11/05 05:55:48;;;;;;;6.53;2.60;;;;;;;;;;5009205;28;20049;-92
2022/11/05 05:58:16;;;;;;;8.02;2.90;;;;;;;;;;5002792;28;20570;-92
2022/11/05 06:00:44;;;;;;;12.55;3.03;;;;;;;;;;5007213;28;20046;-93
2022/11/05 06:03:12;;;;;;;5.15;2.55;;;;;;;;;;4992998;28;20077;-91
2022/11/05 06:05:40;;;;;;;8.65;2.65;;;;;;;;;;4993622;28;20046;-92
2022/11/05 06:08:08;;;;;;;8.57;2.50;;;;;;;;;;5009742;28;20103;-94
2022/11/05 06:10:36;;;;;;;6.20;2.45;;;;;;;;;;5011017;28;20041;-93
2022/11/05 06:13:04;;;;;;;5.57;2.75;;;;;;;;;;5011486;28;20045;-91
2022/11/05 06:15:36;;;;;;;7.22;2.50;;;;;;;;;;4983203;28;20037;-92
2022/11/05 06:18:04;;;;;;;4.70;2.40;;;;;;;;;;4983828;28;20046;-91
2022/11/05 06:20:36;;;;;;;3.92;2.05;;;;;;;;;;5009997;28;20120;-92
2022/11/05 06:23:09;;;;;;;5.43;2.28;;;;;;;;;;4992532;28;20105;-91
2022/11/05 06:25:38;;;;;;;4.45;2.47;;;;;;;;;;5003023;28;20506;-93
2022/11/05 06:28:08;;;;;;;8.27;2.60;;;;;;;;;;5002569;28;20034;-92
2022/11/05 06:30:36;;;;;;;7.35;2.75;;;;;;;;;;5009428;28;20042;-92
2022/11/05 06:33:28;;;;;;;6.63;2.47;;;;;;;;;;4985071;28;20036;-93
2022/11/05 06:36:01;;;;;;;6.53;2.55;;;;;;;;;;4992780;28;20127;-92
2022/11/05 06:38:52;;;;;;;7.95;2.47;;;;;;;;;;4990871;28;20030;-92
2022/11/05 06:41:24;;;;;;;8.25;2.50;;;;;;;;;;5008758;28;20096;-92
2022/11/05 06:43:57;;;;;;;6.10;2.90;;;;;;;;;;5002912;28;20096;-92
2022/11/05 06:46:24;;;;;;;7.15;2.30;;;;;;;;;;4989540;28;20034;-92
2022/11/05 06:48:52;;;;;;;9.35;2.78;;;;;;;;;;5008319;28;20124;-90
2022/11/05 06:51:25;;;;;;;6.35;2.92;;;;;;;;;;5009069;28;20100;-92
2022/11/05 06:53:53;;;;;;;5.65;2.42;;;;;;;;;;5005450;28;20050;-92
2022/11/05 06:56:20;;;;;;;7.07;2.60;;;;;;;;;;4992503;28;20045;-92
2022/11/05 06:58:48;;;;;;;6.03;2.70;;;;;;;;;;5002314;28;20037;-92
2022/11/05 07:01:16;;;;;;;9.10;2.95;;;;;;;;;;4991179;28;20049;-92
2022/11/05 07:04:10;;;;;;;5.53;2.65;;;;;;;;;;4995037;28;20025;-91
2022/11/05 07:06:38;;;;;;;11.40;3.20;;;;;;;;;;5010436;28;20047;-93
2022/11/05 07:09:06;;;;;;;7.60;2.78;;;;;;;;;;4991563;28;20111;-91
2022/11/05 07:11:38;;;;;;;8.13;3.17;;;;;;;;;;4991710;28;20073;-92
2022/11/05 07:14:06;;;;;;;7.25;2.83;;;;;;;;;;4985867;28;20164;-91
2022/11/05 07:16:34;;;;;;;10.57;2.97;;;;;;;;;;5008340;28;20060;-92
2022/11/05 07:19:02;;;;;;;8.18;3.50;;;;;;;;;;4989685;28;20038;-92
2022/11/05 07:21:30;;;;;;;5.90;3.03;;;;;;;;;;5006869;28;20473;-93
2022/11/05 07:23:58;;;;;;;7.10;3.25;;;;;;;;;;5007957;28;20119;-91
2022/11/05 07:26:31;;;;;;;12.07;3.67;;;;;;;;;;4999487;28;20103;-91
2022/11/05 07:29:04;;;;;;;13.32;3.72;;;;;;;;;;4990297;28;20038;-92
2022/11/05 07:31:32;;;;;;;10.48;2.53;;;;;;;;;;5005640;28;20050;-93
2022/11/05 07:34:00;;;;;;;8.68;3.35;;;;;;;;;;4990129;28;20068;-92
2022/11/05 07:36:28;;;;;;;7.35;3.03;;;;;;;;;;4970551;28;20042;-92
2022/11/05 07:38:56;;;;;;;5.63;2.80;;;;;;;;;;4987561;28;20034;-91
2022/11/05 07:41:27;;;;;;;12.45;3.35;;;;;;;;;;4988309;28;20045;-93
2022/11/05 07:44:02;;;;;;;7.68;3.50;;;;;;;;;;4991348;28;20103;-93
2022/11/05 07:46:30;;;;;;;7.93;3.53;;;;;;;;;;4968227;28;20042;-93
2022/11/05 07:49:02;;;;;;;7.60;3.20;;;;;;;;;;4984286;28;20046;-93
2022/11/05 07:51:30;;;;;;;6.65;3.30;;;;;;;;;;4975897;28;20500;-93
2022/11/05 07:54:25;;;;;;;8.55;3.55;;;;;;;;;;5002088;28;20108;-93
2022/11/05 07:56:52;;;;;;;10.75;3.60;;;;;;;;;;4982153;28;20049;-92
2022/11/05 07:59:47;;;;;;;8.32;3.53;;;;;;;;;;5015864;28;20400;-91
2022/11/05 08:02:25;;;;;;;7.20;4.03;;;;;;;;;;5014895;28;20049;-93
2022/11/05 08:04:52;;;;;;;10.73;3.95;;;;;;;;;;4997599;28;20049;-92
2022/11/05 08:07:20;;;;;;;7.72;4.00;;;;;;;;;;5012621;28;20052;-92
2022/11/05 08:09:52;;;;;;;7.93;3.05;;;;;;;;;;5013741;28;20080;-91
2022/11/05 08:12:20;;;;;;;7.63;3.20;;;;;;;;;;5013495;28;20033;-94
2022/11/05 08:15:13;;;;;;;10.75;2.67;;;;;;;;;;4980587;28;20073;-92
2022/11/05 08:17:40;;;;;;;10.20;2.22;;;;;;;;;;5013940;28;20092;-92
2022/11/05 08:20:09;;;;;;;7.05;2.50;;;;;;;;;;5013525;28;20232;-92
2022/11/05 08:22:36;;;;;;;8.77;2.58;;;;;;;;;;4991357;28;20100;-92
2022/11/05 08:25:05;;;;;;;10.00;2.50;;;;;;;;;;5006825;28;20088;-91
2022/11/05 08:27:32;;;;;;;9.23;2.70;;;;;;;;;;4970443;28;20376;-91
2022/11/05 08:30:01;;;;;;;6.68;2.53;;;;;;;;;;4987571;28;20120;-92
2022/11/05 08:32:28;;;;;;;12.50;2.55;;;;;;;;;;5009024;28;20034;-93
2022/11/05 08:35:06;;;;;;;9.20;2.58;;;;;;;;;;5003123;28;20502;-92
2022/11/05 08:37:32;;;;;;;8.27;2.58;;;;;;;;;;4994187;28;20061;-93
2022/11/05 08:40:00;;;;;;;5.75;2.42;;;;;;;;;;4961146;28;20045;-92
2022/11/05 08:42:28;;;;;;;7.18;2.80;;;;;;;;;;5007318;28;20680;-93
2022/11/05 08:44:56;;;;;;;8.40;2.33;;;;;;;;;;4988877;28;20072;-92
2022/11/05 08:47:24;;;;;;;8.18;2.47;;;;;;;;;;4972476;28;20045;-91
2022/11/05 08:49:53;;;;;;;5.32;2.38;;;;;;;;;;5006824;28;20040;-92
2022/11/05 08:52:20;;;;;;;5.97;2.35;;;;;;;;;;5008686;28;20143;-92
2022/11/05 08:55:12;;;;;;;15.65;2.75;;;;;;;;;;4993064;28;20030;-91
2022/11/05 08:58:16;;;;;;;5.63;2.50;;;;;;;;;;4975615;28;20441;-92
2022/11/05 09:00:47;;;;;;;8.07;2.38;;;;;;;;;;5001202;28;20408;-93
2022/11/05 09:03:40;;;;;;;9.48;2.70;;;;;;;;;;5002169;28;20038;-92
2022/11/05 09:06:08;;;;;;;6.05;2.75;;;;;;;;;;4993218;28;20693;-92
2022/11/05 09:08:36;;;;;;;11.35;3.08;;;;;;;;;;4988365;28;20138;-90
2022/11/05 09:11:07;;;;;;;10.35;2.63;;;;;;;;;;5001838;28;20117;-92
2022/11/05 09:13:34;;;;;;;4.13;2.00;;;;;;;;;;4989731;28;20038;-92
2022/11/05 09:16:03;;;;;;;9.05;2.38;;;;;;;;;;4989361;28;20041;-91
2022/11/05 09:18:34;;;;;;;5.72;2.05;;;;;;;;;;4993516;28;20064;-91
2022/11/05 09:21:02;;;;;;;7.95;2.35;;;;;;;;;;5009543;28;20125;-92
2022/11/05 09:23:30;;;;;;;8.98;2.10;;;;;;;;;;5012480;28;20061;-92
2022/11/05 09:26:02;;;;;;;11.40;2.78;;;;;;;;;;5009705;28;20064;-92
2022/11/05 09:28:31;;;;;;;7.35;2.03;;;;;;;;;;4993234;28;20038;-91
2022/11/05 09:30:59;;;;;;;10.60;2.33;;;;;;;;;;4990438;28;20061;-91
2022/11/05 09:33:26;;;;;;;8.48;2.20;;;;;;;;;;5002337;28;20110;-91
2022/11/05 09:36:18;;;;;;;10.02;2.10;;;;;;;;;;4995038;28;20033;-91
2022/11/05 09:38:51;;;;;;;6.20;2.25;;;;;;;;;;4990613;28;20445;-91
2022/11/05 09:41:45;;;;;;;7.68;2.20;;;;;;;;;;4994596;28;20046;-91
2022/11/05 09:44:17;;;;;;;6.38;2.28;;;;;;;;;;4992394;28;20060;-90
2022/11/05 09:47:23;;;;;;;12.52;3.05;;;;;;;;;;4992116;28;20038;-90
2022/11/05 09:50:23;;;;;;;6.15;1.98;;;;;;;;;;5009760;28;20034;-91
2022/11/05 09:52:50;;;;;;;7.60;2.30;;;;;;;;;;4990798;28;20219;-91
2022/11/05 09:55:29;;;;;;;5.63;2.35;;;;;;;;;;5005863;28;20030;-90
2022/11/05 09:58:00;;;;;;;6.50;2.53;;;;;;;;;;5010649;28;20037;-90
2022/11/05 10:00:28;;;;;;;5.05;1.80;;;;;;;;;;5010417;28;20088;-91
2022/11/05 10:03:25;;;;;;;5.07;1.90;;;;;;;;;;5009465;28;20557;-90
2022/11/05 10:06:07;;;;;;;3.75;1.83;;;;;;;;;;4992679;28;20041;-90
2022/11/05 10:08:41;;;;;;;8.18;2.20;;;;;;;;;;5009161;28;20084;-87
2022/11/05 10:11:56;;;;;;;4.30;1.70;;;;;;;;;;4989070;28;20076;-91
2022/11/05 10:14:35;;;;;;;10.57;1.83;;;;;;;;;;5006743;28;20152;-91
2022/11/05 10:20:28;;;;;;;6.82;2.90;;;;;;;;;;4987669;28;20069;-92
2022/11/05 10:23:01;;;;;;;10.68;2.75;;;;;;;;;;5007505;28;20038;-92
2022/11/05 10:25:34;;;;;;;8.32;1.85;;;;;;;;;;4975653;28;20077;-92
2022/11/05 10:28:03;;;;;;;8.15;2.00;;;;;;;;;;4990642;28;20353;-92
2022/11/05 10:30:31;;;;;;;7.45;1.98;;;;;;;;;;5004864;28;20038;-93
2022/11/05 10:33:01;;;;;;;6.22;2.85;;;;;;;;;;4993938;28;20088;-92
2022/11/05 10:35:31;;;;;;;6.95;1.95;;;;;;;;;;4997052;28;20041;-94
2022/11/05 10:38:24;;;;;;;9.80;2.20;;;;;;;;;;5006556;28;20046;-94
2022/11/05 10:40:52;;;;;;;8.02;2.30;;;;;;;;;;5000355;28;20042;-95
2022/11/05 10:43:43;;;;;;;5.90;1.75;;;;;;;;;;4977531;28;20056;-88
2022/11/05 10:46:37;;;;;;;9.65;2.03;;;;;;;;;;5017888;28;20437;-95
2022/11/05 10:49:20;;;;;;;7.97;1.85;;;;;;;;;;4977575;28;20041;-93
2022/11/05 10:51:54;;;;;;;5.35;2.28;;;;;;;;;;4992151;28;20068;-91
2022/11/05 10:54:32;;;;;;;5.35;1.90;;;;;;;;;;5009182;28;20030;-95
2022/11/05 10:57:29;;;;;;;5.57;1.45;;;;;;;;;;5015277;28;20042;-96
2022/11/05 11:00:15;;;;;;;6.03;1.63;;;;;;;;;;5007558;28;20036;-88
2022/11/05 11:02:54;;;;;;;5.93;1.75;;;;;;;;;;4983303;28;20575;-92
2022/11/05 11:05:28;;;;;;;6.30;1.70;;;;;;;;;;4995153;28;20041;-91
2022/11/05 11:08:20;;;;;;;7.22;1.80;;;;;;;;;;4996441;28;20045;-94
2022/11/05 11:10:52;;;;;;;7.15;1.50;;;;;;;;;;5010178;28;20030;-90
2022/11/05 11:13:46;;;;;;;6.35;2.20;;;;;;;;;;4990897;28;20042;-96
2022/11/05 11:16:56;;;;;;;3.83;1.70;;;;;;;;;;4971807;28;20092;-96
2022/11/05 11:19:47;;;;;;;6.32;1.65;;;;;;;;;;4964073;28;20050;-96
2022/11/05 11:22:55;;;;;;;4.45;1.63;;;;;;;;;;4981246;28;20046;-96
2022/11/05 11:26:20;;;;;;;9.70;1.67;;;;;;;;;;4980329;28;20056;-96
2022/11/05 11:29:55;;;;;;;6.00;1.77;;;;;;;;;;5012115;28;20133;-96
2022/11/05 11:32:26;;;;;;;6.93;1.77;;;;;;;;;;4990697;28;20357;-96
2022/11/05 11:34:57;;;;;;;5.75;1.95;;;;;;;;;;4986079;28;20124;-96
2022/11/05 11:37:28;;;;;;;5.93;1.83;;;;;;;;;;4971209;28;20053;-96
2022/11/05 11:40:15;;;;;;;7.65;2.00;;;;;;;;;;4983691;28;20046;-96
2022/11/05 11:42:59;;;;;;;7.43;1.88;;;;;;;;;;4965697;28;20052;-96
2022/11/05 11:46:19;;;;;;;9.07;2.08;;;;;;;;;;4979500;28;20377;-96
2022/11/05 11:49:01;;;;;;;4.63;1.40;;;;;;;;;;4959826;28;20380;-96
2022/11/05 11:51:58;;;;;;;4.75;1.60;;;;;;;;;;4980345;28;20130;-96
2022/11/05 11:54:40;;;;;;;6.03;1.92;;;;;;;;;;4978191;28;20058;-96
2022/11/05 11:57:25;;;;;;;4.07;1.63;;;;;;;;;;4994782;28;20054;-96
2022/11/05 12:00:18;;;;;;;6.57;1.70;;;;;;;;;;4976067;28;20022;-96
2022/11/05 12:03:12;;;;;;;5.43;1.80;;;;;;;;;;4994497;28;20049;-96
2022/11/05 12:05:50;;;;;;;4.28;1.58;;;;;;;;;;4981735;28;20050;-95
2022/11/05 12:08:56;;;;;;;4.63;1.90;;;;;;;;;;4964112;28;20042;-96
2022/11/05 12:12:08;;;;;;;6.93;1.83;;;;;;;;;;4997924;28;20562;-95
2022/11/05 12:14:56;;;;;;;6.35;1.70;;;;;;;;;;4944668;28;20051;-95
2022/11/05 12:17:53;;;;;;;5.70;1.88;;;;;;;;;;4933382;28;20110;-93
2022/11/05 12:20:44;;;;;;;4.53;1.92;;;;;;;;;;4955058;28;20130;-94
2022/11/05 12:23:51;;;;;;;3.72;1.50;;;;;;;;;;4948340;28;20085;-93
2022/11/05 12:26:56;;;;;;;6.18;1.83;;;;;;;;;;4954697;28;20098;-94
2022/11/05 12:29:51;;;;;;;4.50;1.48;;;;;;;;;;4956404;28;20114;-95
2022/11/05 12:33:06;;;;;;;7.78;1.92;;;;;;;;;;4935491;28;20039;-94
2022/11/05 12:36:32;;;;;;;7.63;2.00;;;;;;;;;;4958200;28;20141;-93
2022/11/05 12:39:26;;;;;;;8.23;2.40;;;;;;;;;;4868281;29;20065;-92
2022/11/05 12:42:28;;;;;;;6.35;2.83;;;;;;;;;;4867716;29;20136;-93
2022/11/05 12:45:18;;;;;;;4.25;1.90;;;;;;;;;;4806205;29;20693;-91
2022/11/05 12:48:12;;;;;;;4.95;1.80;;;;;;;;;;4807635;29;20074;-95
2022/11/05 12:50:55;;;;;;;5.75;2.40;;;;;;;;;;4744025;30;20546;-93
2022/11/05 12:53:22;;;;;;;5.90;2.00;;;;;;;;;;4750904;30;20104;-95
2022/11/05 12:55:52;;;;;;;7.20;2.75;;;;;;;;;;4772500;30;20067;-96
2022/11/05 12:58:27;;;;;;;7.30;2.65;;;;;;;;;;4742828;30;20043;-96
2022/11/05 13:01:12;;;;;;;7.38;1.85;;;;;;;;;;4766006;30;20074;-96
2022/11/05 13:03:49;;;;;;;8.38;2.00;;;;;;;;;;4778403;30;20058;-95
2022/11/05 13:06:39;;;;;;;5.43;2.10;;;;;;;;;;4776916;30;20497;-95
2022/11/05 13:09:16;;;;;;;8.48;2.70;;;;;;;;;;4775733;30;20116;-95
2022/11/05 13:11:56;;;;;;;4.60;1.75;;;;;;;;;;4774828;30;20152;-94
2022/11/05 13:14:42;;;;;;;5.45;2.00;;;;;;;;;;4785216;29;20075;-93
2022/11/05 13:17:22;;;;;;;3.78;1.70;;;;;;;;;;4865085;29;20041;-93
2022/11/05 13:20:27;;;;;;;7.53;2.28;;;;;;;;;;4847617;29;20057;-96
2022/11/05 13:22:59;;;;;;;4.57;1.85;;;;;;;;;;4864217;29;20555;-96
2022/11/05 13:25:34;;;;;;;5.03;2.03;;;;;;;;;;4897304;29;20037;-94
2022/11/05 13:28:24;;;;;;;8.65;1.92;;;;;;;;;;4938964;28;20053;-95
2022/11/05 13:31:00;;;;;;;3.92;1.92;;;;;;;;;;4996449;28;20030;-95
2022/11/05 13:33:39;;;;;;;7.65;2.08;;;;;;;;;;5005485;28;20137;-94
2022/11/05 13:39:30;;;;;;;8.05;1.90;;;;;;;;;;5010234;28;20642;-95
2022/11/05 13:42:41;;;;;;;5.68;1.92;;;;;;;;;;4987386;28;20046;-94
2022/11/05 13:45:40;;;;;;;8.23;1.77;;;;;;;;;;4976827;28;20069;-94
2022/11/05 13:48:26;;;;;;;4.57;1.75;;;;;;;;;;4994956;28;20455;-94
2022/11/05 13:51:34;;;;;;;4.53;2.50;;;;;;;;;;5008883;28;20102;-95
2022/11/05 13:54:40;;;;;;;6.95;2.20;;;;;;;;;;4999900;28;20049;-94
2022/11/05 13:58:14;;;;;;;4.43;2.40;;;;;;;;;;5004126;28;20030;-94
2022/11/05 14:01:01;;;;;;;6.97;2.80;;;;;;;;;;4924115;29;20044;-95
2022/11/05 14:03:55;;;;;;;6.55;2.00;;;;;;;;;;4930827;29;20115;-95
2022/11/05 14:06:27;;;;;;;4.93;2.25;;;;;;;;;;4927335;29;20138;-95
2022/11/05 14:09:03;;;;;;;5.32;2.40;;;;;;;;;;4926910;29;20043;-94
2022/11/05 14:11:42;;;;;;;11.30;2.60;;;;;;;;;;4929059;29;20707;-95
2022/11/05 14:14:20;;;;;;;4.90;2.17;;;;;;;;;;4924466;29;20043;-95
2022/11/05 14:20:21;;;;;;;8.45;2.60;;;;;;;;;;4934100;29;20048;-94
2022/11/05 14:22:51;;;;;;;6.63;2.33;;;;;;;;;;4918591;29;20027;-96
2022/11/05 14:25:18;;;;;;;6.78;2.95;;;;;;;;;;4905326;29;20051;-94
2022/11/05 14:27:51;;;;;;;7.30;2.47;;;;;;;;;;4931248;29;20052;-94
2022/11/05 14:30:46;;;;;;;5.15;2.67;;;;;;;;;;4923399;28;20040;-94
2022/11/05 14:33:24;;;;;;;6.97;2.83;;;;;;;;;;4996101;28;20045;-94
2022/11/05 14:36:21;;;;;;;6.75;2.67;;;;;;;;;;4979320;28;20068;-94
2022/11/05 14:39:01;;;;;;;9.15;2.60;;;;;;;;;;4985485;28;20054;-94
2022/11/05 14:41:30;;;;;;;7.43;2.47;;;;;;;;;;4997632;28;20034;-93
2022/11/05 14:44:06;;;;;;;5.95;2.40;;;;;;;;;;5014485;28;20045;-94
2022/11/05 14:46:48;;;;;;;5.88;2.53;;;;;;;;;;4999958;28;20119;-94
2022/11/05 14:49:26;;;;;;;10.13;2.70;;;;;;;;;;4999710;28;20626;-94
2022/11/05 14:52:03;;;;;;;7.95;2.92;;;;;;;;;;4997987;28;20037;-93
2022/11/05 14:54:45;;;;;;;9.73;2.90;;;;;;;;;;4982937;28;20115;-93
2022/11/05 14:57:43;;;;;;;9.90;2.50;;;;;;;;;;4995689;28;20902;-92
2022/11/05 15:00:28;;;;;;;7.47;3.10;;;;;;;;;;4982125;28;20046;-92
2022/11/05 15:03:00;;;;;;;8.30;2.53;;;;;;;;;;5012928;28;20088;-92
2022/11/05 15:05:47;;;;;;;6.07;2.85;;;;;;;;;;4996399;28;20037;-92
2022/11/05 15:08:31;;;;;;;5.55;3.13;;;;;;;;;;4994263;28;20133;-92
2022/11/05 15:11:36;;;;;;;5.78;2.50;;;;;;;;;;5000050;28;20033;-92
2022/11/05 15:14:18;;;;;;;5.95;2.85;;;;;;;;;;5013575;28;20099;-92
2022/11/05 15:16:51;;;;;;;8.00;2.58;;;;;;;;;;4995249;28;20118;-92
2022/11/05 15:19:44;;;;;;;6.32;2.53;;;;;;;;;;4994077;28;20643;-92
2022/11/05 15:26:15;;;;;;;6.15;2.95;;;;;;;;;;5010697;28;20071;-92
2022/11/05 15:28:48;;;;;;;12.88;5.00;;;;;;;;;;5015955;28;20081;-92
2022/11/05 15:31:35;;;;;;;17.38;4.55;;;;;;;;;;5008096;28;20045;-92
2022/11/05 15:34:16;;;;;;;20.23;5.47;;;;;;;;;;4974651;28;20061;-92
2022/11/05 15:36:56;;;;;;;13.20;6.45;;;;;;;;;;4963935;28;20145;-92
2022/11/05 15:39:50;;;;;;;7.35;2.88;;;;;;;;;;5014608;28;20179;-93
2022/11/05 15:42:24;;;;;;;6.32;2.78;;;;;;;;;;5001440;28;20367;-94
2022/11/05 15:44:58;;;;;;;6.00;2.70;;;;;;;;;;4973372;28;20368;-95
2022/11/05 15:47:28;;;;;;;6.85;3.00;;;;;;;;;;5016917;28;20510;-92
2022/11/05 15:50:03;;;;;;;10.80;3.47;;;;;;;;;;4961603;28;20092;-91
2022/11/05 15:52:52;;;;;;;6.93;3.20;;;;;;;;;;5010884;28;20041;-92
2022/11/05 15:55:25;;;;;;;7.05;2.90;;;;;;;;;;5004148;28;20068;-95
2022/11/05 15:57:58;;;;;;;10.70;5.30;;;;;;;;;;5008010;28;20069;-95
2022/11/05 16:00:35;;;;;;;8.57;3.97;;;;;;;;;;5023749;28;20041;-95
2022/11/05 16:03:29;;;;;;;8.77;3.20;;;;;;;;;;4984739;28;20046;-95
2022/11/05 16:05:58;;;;;;;7.18;2.97;;;;;;;;;;4989124;28;20057;-95
2022/11/05 16:08:50;;;;;;;6.47;3.25;;;;;;;;;;5009898;28;20041;-96
2022/11/05 16:11:27;;;;;;;8.35;3.70;;;;;;;;;;4988196;28;20037;-96
2022/11/05 16:14:17;;;;;;;10.70;4.30;;;;;;;;;;4998435;28;20064;-95
2022/11/05 16:16:46;;;;;;;9.57;4.70;;;;;;;;;;4988658;28;20097;-94
2022/11/05 16:19:40;;;;;;;19.00;5.43;;;;;;;;;;4986582;28;20042;-95
2022/11/05 16:22:08;;;;;;;8.73;5.00;;;;;;;;;;5015822;28;20088;-95
2022/11/05 16:24:36;;;;;;;11.13;5.10;;;;;;;;;;4996784;28;20424;-94
2022/11/05 16:27:20;;;;;;;7.00;4.18;;;;;;;;;;5007500;28;20034;-94
2022/11/05 16:30:17;;;;;;;8.40;4.60;;;;;;;;;;5009191;28;20115;-93
2022/11/05 16:32:46;;;;;;;10.05;3.40;;;;;;;;;;5007697;28;20044;-93
2022/11/05 16:35:44;;;;;;;8.55;3.83;;;;;;;;;;4973027;28;20500;-93
2022/11/05 16:38:12;;;;;;;5.50;3.30;;;;;;;;;;5009219;28;20052;-94
2022/11/05 16:40:40;;;;;;;14.82;5.20;;;;;;;;;;4985422;28;20584;-94
2022/11/05 16:43:24;;;;;;;9.48;4.55;;;;;;;;;;4971750;28;20046;-93
2022/11/05 16:45:54;;;;;;;9.77;3.90;;;;;;;;;;5008123;28;20050;-94
2022/11/05 16:48:27;;;;;;;9.10;4.30;;;;;;;;;;4992521;28;20052;-94
2022/11/05 16:51:00;;;;;;;8.52;3.65;;;;;;;;;;4991341;28;20038;-94
2022/11/05 16:53:28;;;;;;;8.52;4.22;;;;;;;;;;4991948;28;20433;-95